Time;durP1;ratioP1;P1;durP2;ratioP2;P2;SDS_P1;SDS_P2;PMS_P1;PMS_P2;Temp;Humidity;BMP_temperature;BMP_pressure;BME280_temperature;BME280_humidity;BME280_pressure;Samples;Min_cycle;Max_cycle;Signal;HPM_P1;HPM_P2
2022/12/26 00:01:00;;;;;;;3.70;1.92;;;;;;;8.73;88.52;97225.06;5026633;28;20591;-68
2022/12/26 00:03:27;;;;;;;3.42;1.88;;;;;;;8.84;87.81;97217.97;5032496;28;20045;-68
2022/12/26 00:05:53;;;;;;;5.75;2.35;;;;;;;8.90;87.35;97229.66;5038511;28;20045;-68
2022/12/26 00:08:20;;;;;;;5.22;2.40;;;;;;;8.94;87.24;97231.66;5028351;28;20057;-68
2022/12/26 00:10:47;;;;;;;4.13;2.00;;;;;;;8.90;87.57;97244.00;5028035;28;20103;-68
2022/12/26 00:13:13;;;;;;;4.57;2.70;;;;;;;8.87;87.81;97236.38;5047011;28;20033;-68
2022/12/26 00:16:14;;;;;;;4.63;2.30;;;;;;;8.91;87.69;97234.81;5039875;28;20037;-68
2022/12/26 00:18:41;;;;;;;5.22;2.40;;;;;;;9.02;87.09;97240.38;5047495;28;20115;-68
2022/12/26 00:21:10;;;;;;;4.60;2.33;;;;;;;8.95;87.49;97227.88;5043930;28;20048;-68
2022/12/26 00:23:38;;;;;;;5.32;2.40;;;;;;;8.88;88.25;97237.22;5041605;28;20037;-68
2022/12/26 00:26:07;;;;;;;5.45;2.20;;;;;;;8.93;87.82;97240.00;5048352;28;20682;-68
2022/12/26 00:28:34;;;;;;;5.00;2.42;;;;;;;8.77;89.00;97236.22;5040778;28;20041;-68
2022/12/26 00:31:06;;;;;;;3.58;1.90;;;;;;;8.61;89.84;97230.53;5045583;28;20048;-68
2022/12/26 00:33:34;;;;;;;4.85;2.33;;;;;;;8.59;89.97;97241.56;5044472;28;20080;-68
2022/12/26 00:36:11;;;;;;;4.82;2.40;;;;;;;8.52;90.69;97235.47;5047581;28;20036;-68
2022/12/26 00:38:40;;;;;;;4.95;2.60;;;;;;;8.63;90.18;97233.84;5034380;28;20132;-68
2022/12/26 00:41:08;;;;;;;6.18;2.30;;;;;;;8.70;89.80;97236.38;5027829;28;20079;-68
2022/12/26 00:43:35;;;;;;;6.65;2.45;;;;;;;8.61;90.36;97213.50;5030466;28;20030;-68
2022/12/26 00:46:03;;;;;;;4.90;2.55;;;;;;;8.35;91.62;97221.13;5049169;28;20052;-68
2022/12/26 00:48:30;;;;;;;5.13;2.40;;;;;;;8.25;92.10;97227.16;5051489;28;20047;-68
2022/12/26 00:50:57;;;;;;;5.70;2.15;;;;;;;8.43;91.76;97231.53;5035017;28;20042;-68
2022/12/26 00:53:24;;;;;;;4.30;2.30;;;;;;;8.30;92.46;97233.44;5029194;28;20068;-68
2022/12/26 00:55:51;;;;;;;3.83;1.92;;;;;;;8.34;92.44;97241.91;5031898;28;20103;-68
2022/12/26 00:58:19;;;;;;;4.90;2.28;;;;;;;8.35;92.12;97237.31;5031315;28;20048;-68
2022/12/26 01:00:46;;;;;;;5.55;2.70;;;;;;;8.32;92.43;97233.22;5041309;28;20512;-68
2022/12/26 01:03:14;;;;;;;4.38;2.20;;;;;;;8.17;93.27;97228.34;5030485;28;20080;-68
2022/12/26 01:05:42;;;;;;;3.95;2.10;;;;;;;8.17;92.96;97234.56;5034104;28;20034;-68
2022/12/26 01:08:09;;;;;;;5.90;2.30;;;;;;;8.36;92.71;97231.66;5030107;28;20627;-68
2022/12/26 01:10:50;;;;;;;3.55;2.08;;;;;;;8.36;92.47;97242.47;5029555;28;20041;-68
2022/12/26 01:13:16;;;;;;;4.57;1.98;;;;;;;8.21;92.41;97240.28;5031954;28;20034;-68
2022/12/26 01:15:50;;;;;;;5.15;2.03;;;;;;;8.12;92.81;97233.63;5048086;28;20048;-68
2022/12/26 01:18:17;;;;;;;4.95;2.40;;;;;;;8.11;93.85;97230.13;5040470;28;20047;-68
2022/12/26 01:20:44;;;;;;;4.35;2.10;;;;;;;7.93;94.57;97229.22;5029590;28;20049;-68
2022/12/26 01:23:11;;;;;;;4.57;2.42;;;;;;;7.76;95.12;97228.34;5028344;28;20107;-68
2022/12/26 01:25:39;;;;;;;4.00;2.13;;;;;;;7.76;95.94;97236.41;5034548;28;20080;-68
2022/12/26 01:28:25;;;;;;;4.45;1.80;;;;;;;7.58;96.63;97219.34;5038602;28;20045;-68
2022/12/26 01:30:52;;;;;;;6.90;2.50;;;;;;;7.38;98.05;97225.91;5039235;28;20055;-68
2022/12/26 01:33:18;;;;;;;4.18;2.03;;;;;;;7.32;98.29;97224.16;5049217;28;20045;-67
2022/12/26 01:35:52;;;;;;;6.78;2.75;;;;;;;7.27;99.91;97230.25;5039922;28;20096;-67
2022/12/26 01:38:19;;;;;;;5.38;2.65;;;;;;;7.27;100.00;97240.22;5036711;28;20033;-67
2022/12/26 01:40:47;;;;;;;4.50;2.58;;;;;;;7.12;100.00;97236.09;5045335;28;20074;-68
2022/12/26 01:43:15;;;;;;;3.65;2.00;;;;;;;7.10;100.00;97238.22;5041743;28;20044;-67
2022/12/26 01:45:48;;;;;;;4.82;2.72;;;;;;;7.13;100.00;97237.75;5046413;28;20057;-67
2022/12/26 01:48:21;;;;;;;6.57;2.30;;;;;;;7.27;100.00;97241.00;5048931;28;20037;-67
2022/12/26 01:51:01;;;;;;;4.50;2.22;;;;;;;7.19;100.00;97235.97;5034671;28;20439;-68
2022/12/26 01:53:51;;;;;;;5.43;2.70;;;;;;;7.02;100.00;97241.25;5028300;28;20037;-68
2022/12/26 01:56:27;;;;;;;5.72;2.60;;;;;;;7.07;100.00;97254.00;5034766;28;20079;-68
2022/12/26 01:59:00;;;;;;;4.00;2.30;;;;;;;7.13;100.00;97250.38;5037741;28;20030;-67
2022/12/26 02:01:30;;;;;;;5.80;2.78;;;;;;;7.07;100.00;97245.94;5027578;28;20034;-68
2022/12/26 02:06:44;;;;;;;4.55;2.53;;;;;;;7.67;98.94;97239.47;5030431;28;20071;-67
2022/12/26 02:09:11;;;;;;;4.22;2.30;;;;;;;7.55;98.58;97249.44;5033223;28;20053;-67
2022/12/26 02:11:43;;;;;;;3.40;1.92;;;;;;;7.66;98.18;97245.09;5037023;28;20061;-67
2022/12/26 02:14:10;;;;;;;3.72;1.88;;;;;;;7.73;98.36;97235.03;5030957;28;20091;-68
2022/12/26 02:16:38;;;;;;;6.95;2.40;;;;;;;7.82;97.33;97243.56;5034791;28;20432;-67
2022/12/26 02:19:19;;;;;;;5.18;2.28;;;;;;;8.01;96.04;97246.94;5047932;28;20053;-67
2022/12/26 02:21:57;;;;;;;3.97;2.20;;;;;;;8.06;95.75;97251.59;5047003;28;20099;-67
2022/12/26 02:24:32;;;;;;;4.88;2.10;;;;;;;8.06;95.31;97244.34;5045711;28;20090;-67
2022/12/26 02:27:04;;;;;;;5.90;2.65;;;;;;;8.13;95.00;97238.81;5043310;28;20045;-67
2022/12/26 02:29:39;;;;;;;5.13;2.13;;;;;;;8.10;95.09;97249.25;5041833;28;20037;-67
2022/12/26 02:32:29;;;;;;;4.75;2.35;;;;;;;8.28;94.20;97267.94;5046910;28;20095;-67
2022/12/26 02:35:08;;;;;;;7.85;2.40;;;;;;;8.35;93.74;97264.28;5038158;28;20041;-67
2022/12/26 02:37:55;;;;;;;3.90;2.08;;;;;;;8.49;92.83;97260.25;5028465;28;20048;-67
2022/12/26 02:40:35;;;;;;;5.25;2.97;;;;;;;8.46;93.23;97264.25;5032976;28;20091;-67
2022/12/26 02:43:10;;;;;;;4.63;2.55;;;;;;;8.45;92.72;97259.91;5029416;28;20069;-67
2022/12/26 02:48:46;;;;;;;4.78;2.30;;;;;;;8.59;92.03;97259.66;5040316;28;20041;-67
2022/12/26 03:14:55;;;;;;;4.78;2.60;;;;;;;7.87;96.06;97262.53;5031538;28;20045;-67
2022/12/26 03:17:50;;;;;;;4.53;2.60;;;;;;;7.91;96.01;97244.84;5033025;28;20057;-67
2022/12/26 03:20:24;;;;;;;4.68;2.55;;;;;;;7.94;95.51;97244.38;5048314;28;20044;-67
2022/12/26 03:22:56;;;;;;;4.78;2.60;;;;;;;7.93;95.93;97248.09;5050474;28;20701;-67
2022/12/26 03:28:21;;;;;;;4.75;2.38;;;;;;;8.06;94.87;97230.03;5031702;28;20692;-67
2022/12/26 03:30:48;;;;;;;5.30;2.67;;;;;;;7.89;95.96;97229.97;5042457;28;20041;-67
2022/12/26 03:36:11;;;;;;;5.80;2.13;;;;;;;7.90;96.50;97221.63;5051214;28;20045;-67
2022/12/26 03:38:54;;;;;;;4.60;2.40;;;;;;;7.87;96.03;97227.50;5033443;28;20142;-67
2022/12/26 04:20:15;;;;;;;5.55;2.53;;;;;;;8.57;92.95;97248.28;5043225;28;20049;-67
2022/12/26 04:46:17;;;;;;;5.72;2.33;;;;;;;8.34;93.96;97241.91;5046012;28;20053;-67
2022/12/26 04:51:32;;;;;;;3.13;1.77;;;;;;;8.46;93.19;97239.16;5046897;28;20066;-67
2022/12/26 04:53:58;;;;;;;4.60;2.28;;;;;;;8.39;93.57;97231.19;5049030;28;20067;-67
2022/12/26 04:56:25;;;;;;;4.90;2.20;;;;;;;8.41;93.42;97236.34;5031009;28;20107;-67
2022/12/26 04:58:52;;;;;;;4.43;1.90;;;;;;;8.33;93.83;97245.63;5028631;28;20049;-67
2022/12/26 05:09:34;;;;;;;3.45;1.92;;;;;;;8.38;94.12;97240.34;5028414;28;20053;-67
2022/12/26 05:12:02;;;;;;;4.88;1.90;;;;;;;8.42;93.74;97244.22;5036914;28;20069;-67
2022/12/26 05:14:30;;;;;;;4.30;1.85;;;;;;;8.38;94.14;97245.75;5031276;28;20038;-67
2022/12/26 05:30:58;;;;;;;4.15;2.17;;;;;;;8.82;91.91;97257.91;5032738;28;20060;-67
2022/12/26 05:36:10;;;;;;;4.80;2.03;;;;;;;8.63;92.79;97255.41;5048026;28;20051;-68
2022/12/26 05:38:37;;;;;;;4.22;2.00;;;;;;;8.56;93.03;97260.13;5026563;28;20045;-67
2022/12/26 05:41:04;;;;;;;4.50;2.28;;;;;;;8.62;92.65;97280.75;5031212;28;20040;-67
2022/12/26 05:43:31;;;;;;;3.47;1.77;;;;;;;8.67;92.37;97271.94;5047465;28;20072;-67
2022/12/26 05:45:58;;;;;;;3.67;1.80;;;;;;;8.69;92.30;97277.91;5040085;28;20076;-67
2022/12/26 05:48:24;;;;;;;5.05;2.30;;;;;;;8.59;92.89;97278.56;5041127;28;20107;-67
2022/12/26 05:50:51;;;;;;;4.18;2.10;;;;;;;8.59;92.82;97263.16;5039822;28;20148;-67
2022/12/26 05:53:17;;;;;;;5.90;2.50;;;;;;;8.49;93.45;97260.25;5039632;28;20075;-67
2022/12/26 05:55:44;;;;;;;4.50;2.10;;;;;;;8.46;93.73;97258.03;5044330;28;20075;-67
2022/12/26 05:58:10;;;;;;;4.82;1.90;;;;;;;8.54;93.26;97264.94;5037824;28;20045;-67
2022/12/26 06:00:37;;;;;;;5.28;2.30;;;;;;;8.61;92.90;97273.72;5045245;28;20087;-67
2022/12/26 06:03:03;;;;;;;4.07;2.10;;;;;;;8.64;92.64;97275.94;5048198;28;20040;-67
2022/12/26 06:05:30;;;;;;;3.70;1.95;;;;;;;8.64;92.71;97270.53;5036897;28;20033;-67
2022/12/26 06:07:57;;;;;;;4.00;2.58;;;;;;;8.52;93.58;97267.03;5027504;28;20095;-67
2022/12/26 06:10:25;;;;;;;4.85;2.22;;;;;;;8.48;94.16;97272.13;5034997;28;20044;-67
2022/12/26 06:12:52;;;;;;;3.80;2.20;;;;;;;8.40;94.64;97253.63;5027789;28;20038;-67
2022/12/26 06:15:18;;;;;;;3.65;1.75;;;;;;;8.49;94.25;97262.13;5035333;28;20041;-67
2022/12/26 06:17:45;;;;;;;3.40;1.80;;;;;;;8.44;94.82;97262.88;5041665;28;20042;-67
2022/12/26 06:20:11;;;;;;;4.03;2.10;;;;;;;8.42;94.84;97271.19;5044874;28;20041;-67
2022/12/26 06:22:38;;;;;;;4.82;2.53;;;;;;;8.42;94.89;97264.97;5034068;28;20040;-67
2022/12/26 06:25:05;;;;;;;5.20;2.38;;;;;;;8.40;95.45;97272.50;5029507;28;20409;-70
2022/12/26 06:27:32;;;;;;;4.07;2.28;;;;;;;8.40;95.35;97264.41;5028062;28;20049;-67
2022/12/26 06:29:58;;;;;;;5.97;2.17;;;;;;;8.37;95.19;97257.59;5038773;28;20052;-67
2022/12/26 06:32:25;;;;;;;5.20;2.20;;;;;;;8.35;95.28;97264.28;5046542;28;20044;-67
2022/12/26 06:34:51;;;;;;;4.05;2.38;;;;;;;8.27;96.16;97260.94;5039356;28;20065;-67
2022/12/26 06:37:18;;;;;;;5.88;2.20;;;;;;;8.32;95.85;97260.19;5042777;28;20110;-67
2022/12/26 06:39:45;;;;;;;4.00;2.00;;;;;;;8.32;96.08;97257.50;5044424;28;20041;-67
2022/12/26 06:42:12;;;;;;;6.40;2.10;;;;;;;8.30;96.31;97267.72;5040387;28;20506;-67
2022/12/26 06:44:38;;;;;;;4.22;2.40;;;;;;;8.32;96.40;97269.13;5032442;28;20147;-67
2022/12/26 06:47:05;;;;;;;4.25;2.17;;;;;;;8.36;96.53;97269.44;5032888;28;20045;-67
2022/12/26 06:49:31;;;;;;;4.00;2.10;;;;;;;8.39;96.17;97274.38;5042662;28;20037;-67
2022/12/26 06:51:59;;;;;;;6.50;2.95;;;;;;;8.39;96.32;97268.97;5037974;28;20071;-67
2022/12/26 06:54:25;;;;;;;5.38;2.53;;;;;;;8.45;96.30;97283.38;5052519;28;20037;-67
2022/12/26 06:56:52;;;;;;;4.75;2.47;;;;;;;8.41;96.36;97280.31;5035969;28;20741;-67
2022/12/26 06:59:19;;;;;;;4.18;2.17;;;;;;;8.38;96.60;97288.94;5029024;28;20077;-67
2022/12/26 07:01:46;;;;;;;4.28;2.00;;;;;;;8.43;96.55;97285.50;5043160;28;20037;-69
2022/12/26 07:04:13;;;;;;;4.00;1.92;;;;;;;8.43;96.76;97290.88;5050713;28;20029;-70
2022/12/26 07:06:40;;;;;;;4.80;2.28;;;;;;;8.41;97.46;97288.41;5050715;28;20048;-70
2022/12/26 07:09:13;;;;;;;4.85;2.22;;;;;;;8.35;97.75;97294.78;5047757;28;20049;-70
2022/12/26 07:11:43;;;;;;;4.68;2.50;;;;;;;8.50;97.05;97291.56;5043091;28;20053;-69
2022/12/26 07:14:10;;;;;;;6.20;2.90;;;;;;;8.58;96.06;97276.91;5051221;28;20095;-69
2022/12/26 07:16:39;;;;;;;6.22;2.65;;;;;;;8.51;96.55;97289.72;5043289;28;20041;-69
2022/12/26 07:19:06;;;;;;;4.80;2.22;;;;;;;8.38;97.83;97280.81;5051262;28;20049;-70
2022/12/26 07:21:33;;;;;;;4.90;2.30;;;;;;;8.39;97.76;97290.56;5030450;28;20057;-69
2022/12/26 07:24:07;;;;;;;3.90;2.25;;;;;;;8.26;99.41;97302.44;5038504;28;20416;-71
2022/12/26 07:26:34;;;;;;;5.72;2.13;;;;;;;8.10;100.00;97295.91;5051094;28;20043;-70
2022/12/26 07:29:01;;;;;;;5.93;2.50;;;;;;;8.11;100.00;97294.84;5037687;28;20091;-70
2022/12/26 07:31:27;;;;;;;4.85;2.45;;;;;;;8.29;100.00;97282.28;5049555;28;20059;-70
2022/12/26 07:33:55;;;;;;;6.80;2.92;;;;;;;8.54;97.40;97289.22;5042539;28;20037;-71
2022/12/26 07:36:23;;;;;;;5.32;2.47;;;;;;;8.71;96.62;97298.19;5032879;28;20049;-70
2022/12/26 07:38:50;;;;;;;4.30;2.13;;;;;;;8.86;95.37;97291.44;5050643;28;20095;-69
2022/12/26 07:44:04;;;;;;;3.25;2.05;;;;;;;8.95;95.35;97303.50;5029938;28;20050;-69
2022/12/26 07:46:31;;;;;;;4.63;2.40;;;;;;;8.68;97.83;97295.16;5032419;28;20041;-69
2022/12/26 07:48:58;;;;;;;8.02;2.22;;;;;;;8.63;98.29;97289.69;5038410;28;20128;-69
2022/12/26 07:51:26;;;;;;;4.60;2.40;;;;;;;8.57;98.88;97291.47;5036592;28;20107;-70
2022/12/26 07:53:52;;;;;;;4.70;2.15;;;;;;;8.56;98.97;97293.31;5050398;28;20044;-70
2022/12/26 07:56:19;;;;;;;5.93;2.60;;;;;;;8.51;99.64;97305.91;5053472;28;20045;-71
2022/12/26 07:58:49;;;;;;;6.53;3.47;;;;;;;8.37;100.00;97298.06;5038914;28;20067;-69
2022/12/26 08:01:16;;;;;;;6.38;3.55;;;;;;;8.37;100.00;97302.66;5046749;28;20045;-71
2022/12/26 08:03:43;;;;;;;5.60;3.00;;;;;;;8.41;100.00;97306.50;5039834;28;20056;-70
2022/12/26 08:06:11;;;;;;;5.50;2.95;;;;;;;8.59;98.61;97316.34;5038210;28;20052;-69
2022/12/26 08:08:37;;;;;;;6.32;3.40;;;;;;;8.75;97.46;97322.00;5060068;28;20400;-70
2022/12/26 08:11:06;;;;;;;6.60;3.38;;;;;;;8.77;97.51;97314.50;5036742;28;20110;-69
2022/12/26 08:13:33;;;;;;;6.65;2.90;;;;;;;8.87;96.48;97321.94;5048535;28;20044;-69
2022/12/26 08:16:05;;;;;;;7.15;3.78;;;;;;;8.71;97.86;97325.19;5047629;28;20045;-70
2022/12/26 08:18:32;;;;;;;10.40;3.78;;;;;;;8.53;100.00;97314.59;5046501;28;20613;-70
2022/12/26 08:20:59;;;;;;;4.95;2.65;;;;;;;8.37;100.00;97308.84;5046410;28;20048;-70
2022/12/26 08:23:26;;;;;;;5.10;2.78;;;;;;;8.56;99.17;97319.50;5040845;28;20103;-69
2022/12/26 08:25:53;;;;;;;7.15;3.03;;;;;;;8.65;97.48;97326.16;5049046;28;20049;-70
2022/12/26 08:28:19;;;;;;;6.00;2.78;;;;;;;8.78;96.30;97341.25;5044386;28;20045;-70
2022/12/26 08:30:48;;;;;;;4.70;2.67;;;;;;;8.92;95.19;97352.56;5033692;28;20041;-69
2022/12/26 08:33:15;;;;;;;5.18;2.53;;;;;;;8.74;95.91;97356.31;5043247;28;20078;-53
2022/12/26 08:35:42;;;;;;;6.10;2.85;;;;;;;8.58;97.07;97369.50;5031248;28;20091;-50
2022/12/26 08:38:09;;;;;;;4.25;2.50;;;;;;;8.54;98.00;97372.88;5048546;28;20120;-53
2022/12/26 08:40:36;;;;;;;5.30;2.92;;;;;;;8.43;98.94;97378.06;5037003;28;20049;-51
2022/12/26 08:43:11;;;;;;;5.65;2.67;;;;;;;8.29;100.00;97390.97;5042955;28;20049;-53
2022/12/26 08:46:09;;;;;;;6.88;3.00;;;;;;;8.16;100.00;97402.84;5034774;28;20041;-54
2022/12/26 08:48:38;;;;;;;7.75;3.45;;;;;;;8.05;100.00;97403.66;5039568;28;20114;-54
2022/12/26 08:51:12;;;;;;;5.28;2.67;;;;;;;7.95;100.00;97420.44;5036247;28;20220;-54
2022/12/26 08:53:39;;;;;;;5.22;2.67;;;;;;;7.88;100.00;97414.31;5033444;28;20061;-55
2022/12/26 08:56:10;;;;;;;6.80;3.33;;;;;;;7.87;100.00;97424.28;5030543;28;20853;-67
2022/12/26 08:58:37;;;;;;;5.72;3.17;;;;;;;7.80;100.00;97428.97;5053083;28;20577;-67
2022/12/26 09:01:16;;;;;;;8.35;3.42;;;;;;;7.82;100.00;97413.41;5041835;28;20056;-67
2022/12/26 09:03:44;;;;;;;6.75;3.83;;;;;;;7.86;100.00;97419.13;5057681;28;20041;-67
2022/12/26 09:06:13;;;;;;;6.55;3.60;;;;;;;7.80;100.00;97424.41;5039408;28;20719;-67
2022/12/26 09:08:40;;;;;;;6.80;3.50;;;;;;;7.80;100.00;97426.28;5044600;28;20037;-67
2022/12/26 09:11:13;;;;;;;9.32;3.97;;;;;;;7.84;100.00;97434.69;5050958;28;20052;-67
2022/12/26 09:13:41;;;;;;;7.90;3.55;;;;;;;7.87;100.00;97445.88;5034911;28;20099;-67
2022/12/26 09:16:17;;;;;;;6.25;3.00;;;;;;;7.78;100.00;97437.28;5039248;28;20448;-67
2022/12/26 09:18:45;;;;;;;7.55;3.60;;;;;;;7.75;100.00;97437.78;5046021;28;20044;-66
2022/12/26 09:21:14;;;;;;;7.47;3.35;;;;;;;7.82;100.00;97445.75;5044748;28;20105;-66
2022/12/26 09:23:41;;;;;;;6.32;3.10;;;;;;;7.94;100.00;97451.97;5054744;28;20118;-67
2022/12/26 09:26:11;;;;;;;7.03;3.03;;;;;;;7.96;100.00;97457.09;5057739;28;20553;-67
2022/12/26 09:28:38;;;;;;;5.50;3.28;;;;;;;7.96;100.00;97459.00;5038816;28;20041;-66
2022/12/26 09:31:11;;;;;;;6.63;3.25;;;;;;;7.97;100.00;97457.94;5038900;28;20072;-66
2022/12/26 09:33:38;;;;;;;7.18;3.75;;;;;;;7.85;100.00;97469.53;5045064;28;20048;-66
2022/12/26 09:36:11;;;;;;;5.85;3.70;;;;;;;7.88;100.00;97482.53;5028377;28;20052;-67
2022/12/26 09:38:43;;;;;;;10.30;5.30;;;;;;;7.80;100.00;97507.13;5045956;28;20045;-66
2022/12/26 09:41:44;;;;;;;8.48;4.40;;;;;;;7.79;100.00;97511.72;5034317;28;20071;-66
2022/12/26 09:44:30;;;;;;;8.05;3.95;;;;;;;7.91;100.00;97514.44;5041549;28;20096;-67
2022/12/26 09:47:32;;;;;;;5.85;3.60;;;;;;;8.13;100.00;97508.50;5038328;28;20717;-67
2022/12/26 09:50:24;;;;;;;5.18;2.67;;;;;;;8.30;100.00;97513.22;5040067;28;20056;-66
2022/12/26 09:53:05;;;;;;;5.80;1.65;;;;;;;8.57;100.00;97497.41;5029451;28;20476;-67
2022/12/26 09:55:40;;;;;;;2.40;1.48;;;;;;;8.61;100.00;97505.84;5044290;28;20424;-66
2022/12/26 09:58:28;;;;;;;2.70;1.25;;;;;;;8.59;100.00;97524.97;5029985;28;20564;-66
2022/12/26 10:01:06;;;;;;;5.22;1.27;;;;;;;8.58;100.00;97520.63;5029268;28;20038;-66
2022/12/26 10:03:38;;;;;;;2.25;1.05;;;;;;;8.55;100.00;97502.19;5034349;28;20090;-66
2022/12/26 10:06:13;;;;;;;3.65;1.75;;;;;;;8.64;100.00;97482.94;5030897;28;20059;-66
2022/12/26 10:09:06;;;;;;;3.20;1.27;;;;;;;8.71;100.00;97489.84;5035928;28;20045;-66
2022/12/26 10:11:50;;;;;;;2.13;0.93;;;;;;;8.68;100.00;97487.66;5034723;28;20106;-66
2022/12/26 10:14:32;;;;;;;2.67;1.35;;;;;;;8.61;100.00;97484.25;5036600;28;20052;-67
2022/12/26 10:17:13;;;;;;;2.67;1.17;;;;;;;8.70;100.00;97477.41;5034391;28;20045;-66
2022/12/26 10:20:12;;;;;;;2.72;1.23;;;;;;;8.66;100.00;97480.84;5035389;28;20677;-66
2022/12/26 10:23:03;;;;;;;3.92;1.67;;;;;;;8.68;100.00;97487.66;5034663;28;20566;-65
2022/12/26 10:25:42;;;;;;;3.23;1.43;;;;;;;8.78;100.00;97492.47;5040254;28;20037;-65
2022/12/26 10:28:34;;;;;;;2.58;1.48;;;;;;;8.74;100.00;97490.44;5045292;28;20077;-66
2022/12/26 10:31:07;;;;;;;1.85;1.00;;;;;;;8.75;100.00;97478.59;5033683;28;20057;-68
2022/12/26 10:33:48;;;;;;;2.67;0.98;;;;;;;8.77;100.00;97495.38;5036102;28;20048;-67
2022/12/26 10:36:35;;;;;;;2.80;0.90;;;;;;;8.74;100.00;97495.84;5045731;28;20128;-68
2022/12/26 10:39:04;;;;;;;1.73;0.70;;;;;;;8.70;100.00;97485.53;5041189;28;20041;-68
2022/12/26 10:41:39;;;;;;;2.65;0.75;;;;;;;8.63;100.00;97501.03;5043753;28;20044;-68
2022/12/26 10:44:10;;;;;;;3.78;0.80;;;;;;;8.67;100.00;97490.59;5033565;28;20049;-68
2022/12/26 10:47:02;;;;;;;1.05;0.65;;;;;;;8.68;100.00;97501.16;5032623;28;20040;-65
2022/12/26 10:49:29;;;;;;;;;;;;;;;8.66;100.00;97499.75;5035736;28;20161;-65
2022/12/26 10:51:59;;;;;;;2.20;0.80;;;;;;;8.68;100.00;97509.25;5036594;28;20471;-65
2022/12/26 10:54:27;;;;;;;1.58;0.70;;;;;;;8.54;100.00;97508.66;5029768;28;20745;-66
2022/12/26 10:56:57;;;;;;;1.90;0.85;;;;;;;8.38;100.00;97504.78;5035324;28;20053;-66
2022/12/26 10:59:49;;;;;;;1.73;0.82;;;;;;;8.40;100.00;97496.44;5036500;28;20520;-66
2022/12/26 11:02:26;;;;;;;4.10;1.92;;;;;;;8.44;100.00;97493.03;5032395;28;20044;-65
2022/12/26 11:05:00;;;;;;;2.58;1.02;;;;;;;8.59;100.00;97492.56;5044870;28;20519;-65
2022/12/26 11:07:53;;;;;;;5.88;2.22;;;;;;;8.44;100.00;97490.31;5034145;28;20055;-65
2022/12/26 11:10:25;;;;;;;6.68;2.40;;;;;;;8.29;100.00;97488.09;5053934;28;20244;-68
2022/12/26 11:12:54;;;;;;;4.80;2.03;;;;;;;8.25;100.00;97478.03;5053799;28;20534;-67
2022/12/26 11:15:40;;;;;;;5.72;1.92;;;;;;;8.19;100.00;97461.69;5032971;28;20652;-67
2022/12/26 11:18:32;;;;;;;6.97;3.03;;;;;;;8.16;100.00;97450.56;5054448;28;20140;-64
2022/12/26 11:21:17;;;;;;;;;;;;;;;8.22;100.00;97441.53;5038964;28;20053;-65
2022/12/26 11:23:45;;;;;;;3.10;1.58;;;;;;;8.26;100.00;97441.91;5047985;28;20288;-66
2022/12/26 11:26:23;;;;;;;3.55;1.50;;;;;;;8.36;100.00;97447.50;5045013;28;20036;-63
2022/12/26 11:29:12;;;;;;;3.22;1.35;;;;;;;8.48;100.00;97463.72;5040859;28;20068;-63
2022/12/26 11:31:51;;;;;;;3.65;1.50;;;;;;;8.42;100.00;97470.88;5041809;28;20098;-64
2022/12/26 11:34:50;;;;;;;2.10;0.98;;;;;;;8.41;100.00;97471.91;5038763;28;20124;-64
2022/12/26 11:37:41;;;;;;;2.33;1.00;;;;;;;8.45;100.00;97475.78;5026665;28;20095;-64
2022/12/26 11:40:20;;;;;;;1.40;0.80;;;;;;;8.45;100.00;97473.06;5008788;28;20068;-64
2022/12/26 11:42:55;;;;;;;4.13;1.10;;;;;;;8.48;100.00;97482.59;5009409;28;20406;-63
2022/12/26 11:45:26;;;;;;;2.67;1.00;;;;;;;8.50;100.00;97475.06;5041734;28;20049;-65
2022/12/26 11:47:55;;;;;;;1.77;0.83;;;;;;;8.50;100.00;97460.75;5030849;28;20044;-67
2022/12/26 11:50:26;;;;;;;2.25;0.88;;;;;;;8.57;100.00;97470.41;5044120;28;20295;-65
2022/12/26 11:52:56;;;;;;;3.15;0.70;;;;;;;8.59;100.00;97472.88;5033335;28;20038;-69
2022/12/26 11:55:25;;;;;;;2.70;1.00;;;;;;;8.59;100.00;97468.28;5038618;28;20095;-70
2022/12/26 11:58:11;;;;;;;1.40;0.68;;;;;;;8.70;100.00;97449.63;5040688;28;20045;-70
2022/12/26 12:01:01;;;;;;;0.50;0.50;;;;;;;8.66;100.00;97438.47;5035116;28;20049;-69
2022/12/26 12:03:41;;;;;;;1.73;0.60;;;;;;;8.69;100.00;97442.56;5036383;28;20060;-70
2022/12/26 12:06:23;;;;;;;1.45;0.80;;;;;;;8.77;100.00;97436.78;5037849;28;20056;-71
2022/12/26 12:09:05;;;;;;;1.52;0.70;;;;;;;8.83;100.00;97438.56;5040289;28;20590;-68
2022/12/26 12:11:59;;;;;;;2.65;0.75;;;;;;;8.85;100.00;97455.31;5040307;28;20476;-64
2022/12/26 12:14:58;;;;;;;1.15;0.57;;;;;;;8.84;100.00;97447.47;5030886;28;20042;-67
2022/12/26 12:17:37;;;;;;;1.63;0.75;;;;;;;8.86;100.00;97448.06;5036435;28;20137;-67
2022/12/26 12:20:16;;;;;;;1.25;0.60;;;;;;;8.81;100.00;97448.75;5045495;28;20070;-67
2022/12/26 12:22:54;;;;;;;1.67;0.70;;;;;;;8.85;100.00;97455.31;5035944;28;20049;-67
2022/12/26 12:25:29;;;;;;;2.85;0.68;;;;;;;8.79;100.00;97475.19;5042029;28;20126;-67
2022/12/26 12:28:33;;;;;;;0.77;0.40;;;;;;;8.97;100.00;97460.72;5038337;28;20041;-67
2022/12/26 12:31:10;;;;;;;2.03;0.77;;;;;;;8.81;100.00;97458.75;5036340;28;20069;-67
2022/12/26 12:33:47;;;;;;;1.80;0.70;;;;;;;8.79;100.00;97468.97;5041125;28;20056;-67
2022/12/26 12:36:32;;;;;;;3.13;0.95;;;;;;;8.77;100.00;97453.00;5041599;28;20091;-67
2022/12/26 12:39:05;;;;;;;1.13;0.40;;;;;;;8.85;100.00;97452.63;5041210;28;20045;-67
2022/12/26 12:42:06;;;;;;;2.80;0.90;;;;;;;8.85;100.00;97451.81;5043246;28;20056;-67
2022/12/26 12:45:03;;;;;;;1.40;0.73;;;;;;;8.86;100.00;97450.75;5036487;28;20053;-67
2022/12/26 12:47:39;;;;;;;1.85;0.80;;;;;;;8.87;100.00;97436.19;5033654;28;20502;-67
2022/12/26 12:50:35;;;;;;;2.33;0.88;;;;;;;8.78;100.00;97430.34;5038539;28;20576;-68
2022/12/26 12:53:31;;;;;;;1.75;0.85;;;;;;;8.84;100.00;97437.50;5045556;28;20037;-68
2022/12/26 12:56:17;;;;;;;1.48;0.70;;;;;;;8.81;100.00;97439.84;5039410;28;20796;-65
2022/12/26 12:58:44;;;;;;;1.73;0.50;;;;;;;8.92;100.00;97436.28;5042207;28;20136;-66
2022/12/26 13:01:21;;;;;;;1.30;0.60;;;;;;;9.01;100.00;97442.16;5028758;28;20429;-66
2022/12/26 13:03:55;;;;;;;2.53;0.60;;;;;;;8.95;100.00;97432.28;5043102;28;20041;-68
2022/12/26 13:06:48;;;;;;;2.80;0.82;;;;;;;8.85;100.00;97447.22;5043769;28;20121;-65
2022/12/26 13:09:17;;;;;;;2.10;0.80;;;;;;;8.81;100.00;97434.47;5040164;28;20137;-66
2022/12/26 13:11:50;;;;;;;4.43;1.17;;;;;;;8.88;100.00;97442.41;5036478;28;20045;-67
2022/12/26 13:14:23;;;;;;;2.25;1.00;;;;;;;8.85;100.00;97433.72;5009363;28;20048;-63
2022/12/26 13:17:05;;;;;;;1.60;0.80;;;;;;;8.93;100.00;97423.63;5038730;28;20065;-63
2022/12/26 13:19:55;;;;;;;2.17;1.00;;;;;;;8.88;100.00;97420.81;4996943;28;20048;-62
2022/12/26 13:25:25;;;;;;;2.63;1.38;;;;;;;9.07;100.00;97430.38;5014422;28;20064;-63
2022/12/26 13:28:08;;;;;;;1.45;0.70;;;;;;;9.06;100.00;97411.69;5002327;28;20916;-63
2022/12/26 13:30:38;;;;;;;2.60;1.25;;;;;;;9.02;100.00;97416.75;5034008;28;20723;-63
2022/12/26 13:33:05;;;;;;;2.83;1.10;;;;;;;9.06;100.00;97414.41;5047808;28;20057;-65
2022/12/26 13:35:49;;;;;;;3.10;1.73;;;;;;;9.00;100.00;97429.72;5046460;28;20124;-65
2022/12/26 13:38:17;;;;;;;2.67;1.10;;;;;;;8.98;100.00;97421.84;5031334;28;20041;-64
2022/12/26 13:40:52;;;;;;;4.78;1.70;;;;;;;9.03;100.00;97423.00;5036048;28;20385;-63
2022/12/26 13:46:53;;;;;;;8.32;3.35;;;;;;;9.13;100.00;97416.97;5035037;28;20168;-64
2022/12/26 13:49:34;;;;;;;4.60;2.47;;;;;;;9.17;100.00;97418.09;5041247;28;20064;-65
2022/12/26 13:52:10;;;;;;;3.50;1.40;;;;;;;9.20;100.00;97409.53;5039551;28;20566;-64
2022/12/26 13:54:57;;;;;;;1.75;0.80;;;;;;;9.17;100.00;97413.53;5058093;28;20484;-65
2022/12/26 13:57:43;;;;;;;7.68;3.80;;;;;;;9.11;100.00;97409.13;5040929;28;20045;-65
2022/12/26 14:00:44;;;;;;;4.78;1.55;;;;;;;9.06;100.00;97414.41;5038554;28;20884;-64
2022/12/26 14:03:32;;;;;;;2.70;1.15;;;;;;;9.15;100.00;97423.78;5036578;28;20608;-65
2022/12/26 14:06:24;;;;;;;2.72;1.10;;;;;;;9.20;100.00;97414.94;5050149;28;20041;-64
2022/12/26 14:09:05;;;;;;;1.83;0.90;;;;;;;9.16;100.00;97403.78;5028253;28;20045;-64
2022/12/26 14:11:59;;;;;;;4.27;1.60;;;;;;;9.19;100.00;97402.50;5037526;28;20107;-65
2022/12/26 14:14:38;;;;;;;3.47;1.60;;;;;;;9.11;100.00;97409.91;5042691;28;20067;-64
2022/12/26 14:17:19;;;;;;;2.22;1.10;;;;;;;9.17;100.00;97410.84;5038563;28;20133;-65
2022/12/26 14:20:00;;;;;;;3.20;1.45;;;;;;;9.19;100.00;97416.00;5050012;28;20040;-65
2022/12/26 14:22:36;;;;;;;5.25;2.53;;;;;;;9.12;100.00;97408.03;5042046;28;20041;-65
2022/12/26 14:25:16;;;;;;;4.65;1.92;;;;;;;9.04;100.00;97409.25;5032643;28;20463;-65